Herzlich willkommen!

Am freundlichen Bodensee-Flugplatz zwischen Schwarzwald, Rhein und Alpen.

Aktuelles

06.10.2019
Winterpause
16. Dez. 2019 bis 30. Jan. 2020 NOTAM Q) LSAS/QFAAP/IV/NBO /A /000/999/4741N00908E A) EDTZ B) 19/12/16 00:00 C) 20/01/30 23:59 E) AD PPR +49 (0) 1727411981.
— Flugleitung EDTZ

Live am Platz

Die Bilder unserer Webcams werden alle 5 Minuten aktualisiert.

Sonnenaufgang:

07:03 UTC / 08:03 Lokal

Sonnenuntergang:

16:04 UTC / 17:04 Lokal

METAR (18.01.2020 10:50 UTC):

EDNY 181050Z 26006KT 230V320 9999 FEW030 SCT043 BKN066 05/01 Q1028
VFR

TAF (18.01.2020 05:00 UTC):

TAF EDNY 180500Z 1806/1906 22005KT 9999 BKN020 TEMPO 1806/1810 4500 -DZRA BKN009 PROB30 TEMPO 1810/1821 4500 SHRA BKN010TCU PROB30 TEMPO 1821/1906 2000 -SHSN BKN010TCU

Alle Angaben unverbindlich und ohne Gewähr. Zeiten genähert.

Für den Verkehrslandeplatz Konstanz werden keine offiziellen Wetterinformationen ausgegeben. Daher werden zur Orientierung Daten des nahegelegenen Flughafens Friedrichshafen dargestellt.

Flugwetterdaten zur Verfügung gestellt von wippich.aero.